Time;durP1;ratioP1;P1;durP2;ratioP2;P2;SDS_P1;SDS_P2;PMS_P1;PMS_P2;Temp;Humidity;BMP_temperature;BMP_pressure;BME280_temperature;BME280_humidity;BME280_pressure;Samples;Min_cycle;Max_cycle;Signal;HPM_P1;HPM_P2
2021/06/14 00:01:31;;;;;;;5.53;2.30;;;24.20;42.60;;;;;;5044372;28;20052;-67
2021/06/14 00:03:56;;;;;;;5.63;2.55;;;24.10;42.60;;;;;;5043807;28;20021;-66
2021/06/14 00:06:22;;;;;;;5.75;2.22;;;24.10;42.60;;;;;;5045968;28;20041;-67
2021/06/14 00:08:48;;;;;;;4.75;2.55;;;24.10;42.70;;;;;;5043494;28;20033;-66
2021/06/14 00:11:14;;;;;;;6.40;2.47;;;24.10;42.60;;;;;;5043477;28;20040;-67
2021/06/14 00:13:40;;;;;;;5.53;2.33;;;24.10;42.60;;;;;;5043034;28;20025;-67
2021/06/14 00:16:06;;;;;;;5.80;2.22;;;24.00;42.60;;;;;;5039953;28;20032;-67
2021/06/14 00:18:34;;;;;;;4.72;2.30;;;24.00;42.70;;;;;;5033672;28;20029;-67
2021/06/14 00:21:03;;;;;;;5.90;2.78;;;24.00;42.70;;;;;;5032224;28;20060;-66
2021/06/14 00:23:30;;;;;;;5.90;2.55;;;24.00;42.70;;;;;;5033350;28;20025;-66
2021/06/14 00:25:56;;;;;;;5.53;2.42;;;24.00;42.80;;;;;;5033482;28;20032;-67
2021/06/14 00:28:22;;;;;;;6.68;2.60;;;24.00;42.70;;;;;;5033289;28;20057;-67
2021/06/14 00:30:51;;;;;;;5.57;2.40;;;24.00;42.80;;;;;;5033275;28;20063;-67
2021/06/14 00:33:17;;;;;;;5.28;2.30;;;24.00;42.80;;;;;;5033374;28;20026;-67
2021/06/14 00:35:44;;;;;;;7.35;2.70;;;23.90;42.80;;;;;;5033331;28;20036;-67
2021/06/14 00:38:12;;;;;;;6.00;2.50;;;23.90;42.80;;;;;;5031918;28;20061;-66
2021/06/14 00:40:37;;;;;;;7.47;2.63;;;23.90;42.80;;;;;;5033110;28;20514;-67
2021/06/14 00:43:05;;;;;;;6.05;2.30;;;23.90;42.80;;;;;;5033411;28;20068;-67
2021/06/14 00:45:31;;;;;;;6.22;2.80;;;23.90;42.80;;;;;;5033070;28;20056;-67
2021/06/14 00:47:59;;;;;;;6.05;2.28;;;23.90;42.90;;;;;;5033219;28;20029;-66
2021/06/14 00:50:35;;;;;;;5.15;2.45;;;23.90;42.90;;;;;;5032992;28;20037;-67
2021/06/14 00:53:01;;;;;;;6.00;2.47;;;23.90;42.90;;;;;;5033308;28;20026;-67
2021/06/14 00:55:27;;;;;;;6.63;2.45;;;23.80;42.90;;;;;;5033230;28;20084;-67
2021/06/14 00:57:53;;;;;;;5.25;2.35;;;23.80;42.90;;;;;;5032902;28;20021;-67
2021/06/14 01:00:20;;;;;;;5.82;2.70;;;23.80;42.90;;;;;;5032735;28;20041;-67
2021/06/14 01:02:46;;;;;;;7.97;2.45;;;23.80;43.00;;;;;;5032710;28;20030;-67
2021/06/14 01:05:12;;;;;;;5.22;2.22;;;23.80;42.90;;;;;;5032776;28;20033;-67
2021/06/14 01:07:38;;;;;;;7.63;2.80;;;23.70;43.00;;;;;;5032906;28;20087;-67
2021/06/14 01:10:06;;;;;;;5.93;2.88;;;23.80;43.00;;;;;;5033073;28;20128;-67
2021/06/14 01:12:37;;;;;;;5.25;2.55;;;23.70;43.10;;;;;;5036984;28;20026;-67
2021/06/14 01:15:14;;;;;;;6.07;2.40;;;23.70;43.00;;;;;;5036889;28;20083;-67
2021/06/14 01:18:02;;;;;;;7.20;2.45;;;23.70;43.00;;;;;;5036834;28;20025;-67
2021/06/14 01:20:49;;;;;;;5.60;2.47;;;23.70;43.10;;;;;;5037123;28;20355;-68
2021/06/14 01:23:40;;;;;;;6.15;2.80;;;23.70;43.10;;;;;;5036983;28;20021;-69
2021/06/14 01:26:13;;;;;;;5.90;2.58;;;23.70;43.10;;;;;;5036630;28;20018;-68
2021/06/14 01:28:40;;;;;;;7.45;2.95;;;23.70;43.10;;;;;;5035596;28;20037;-67
2021/06/14 01:31:06;;;;;;;5.07;2.50;;;23.60;43.00;;;;;;5037041;28;20025;-67
2021/06/14 01:33:33;;;;;;;5.53;2.80;;;23.60;43.10;;;;;;5036742;28;20025;-67
2021/06/14 01:36:04;;;;;;;7.45;3.05;;;23.60;43.10;;;;;;5036863;28;20105;-67
2021/06/14 01:38:31;;;;;;;4.85;2.30;;;23.60;43.10;;;;;;5036597;28;20053;-67
2021/06/14 01:41:00;;;;;;;6.32;2.67;;;23.60;43.10;;;;;;5038285;28;20496;-67
2021/06/14 01:43:32;;;;;;;6.63;2.75;;;23.60;43.10;;;;;;5039453;28;20025;-67
2021/06/14 01:46:03;;;;;;;6.47;2.83;;;23.60;43.10;;;;;;5043418;28;20029;-67
2021/06/14 01:48:29;;;;;;;6.60;3.15;;;23.50;43.10;;;;;;5042055;28;20028;-67
2021/06/14 01:50:56;;;;;;;7.43;2.63;;;23.50;43.10;;;;;;5037736;28;20053;-67
2021/06/14 01:53:22;;;;;;;6.03;2.33;;;23.50;43.10;;;;;;5037224;28;20095;-67
2021/06/14 01:55:48;;;;;;;5.47;2.30;;;23.50;43.20;;;;;;5037025;28;20521;-67
2021/06/14 01:58:19;;;;;;;5.75;2.47;;;23.50;43.10;;;;;;5036722;28;20108;-67
2021/06/14 02:00:45;;;;;;;5.65;2.45;;;23.50;43.10;;;;;;5036607;28;20021;-67
2021/06/14 02:03:12;;;;;;;6.22;3.00;;;23.50;43.10;;;;;;5036607;28;20021;-67
2021/06/14 02:05:38;;;;;;;7.13;2.70;;;23.50;43.10;;;;;;5036728;28;20025;-67
2021/06/14 02:08:08;;;;;;;4.70;2.40;;;23.50;43.20;;;;;;5036749;28;20056;-67
2021/06/14 02:10:36;;;;;;;5.70;2.40;;;23.50;43.20;;;;;;5036683;28;20032;-67
2021/06/14 02:13:04;;;;;;;6.07;2.83;;;23.40;43.20;;;;;;5036608;28;20026;-67
2021/06/14 02:15:29;;;;;;;4.57;2.30;;;23.40;43.30;;;;;;5036265;28;20028;-67
2021/06/14 02:17:58;;;;;;;5.18;2.40;;;23.40;43.30;;;;;;5034959;28;20022;-67
2021/06/14 02:20:24;;;;;;;6.35;2.70;;;23.40;43.30;;;;;;5036190;28;20029;-67
2021/06/14 02:22:50;;;;;;;8.40;2.95;;;23.40;43.30;;;;;;5035904;28;20393;-67
2021/06/14 02:25:16;;;;;;;4.75;2.40;;;23.30;43.40;;;;;;5036527;28;20028;-67
2021/06/14 02:27:42;;;;;;;6.28;2.47;;;23.30;43.30;;;;;;5036862;28;20035;-67
2021/06/14 02:30:11;;;;;;;6.47;2.33;;;23.40;43.40;;;;;;5045085;28;20030;-67
2021/06/14 02:32:37;;;;;;;5.95;2.55;;;23.30;43.30;;;;;;5041494;28;20109;-67
2021/06/14 02:35:04;;;;;;;5.45;2.30;;;23.40;43.30;;;;;;5052152;28;20381;-67
2021/06/14 02:37:30;;;;;;;5.47;2.50;;;23.40;43.30;;;;;;5035886;28;20392;-67
2021/06/14 02:39:57;;;;;;;8.45;3.13;;;23.30;43.30;;;;;;5035964;28;20026;-68
2021/06/14 02:42:23;;;;;;;5.28;2.60;;;23.30;43.30;;;;;;5035540;28;20036;-66
2021/06/14 02:44:49;;;;;;;5.25;2.35;;;23.30;43.40;;;;;;5035614;28;20128;-68
2021/06/14 02:47:17;;;;;;;7.18;2.95;;;23.30;43.40;;;;;;5035527;28;20025;-67
2021/06/14 02:49:42;;;;;;;6.70;2.60;;;23.30;43.30;;;;;;5035492;28;20491;-67
2021/06/14 02:52:11;;;;;;;5.65;2.58;;;23.30;43.40;;;;;;5041919;28;20029;-67
2021/06/14 02:54:42;;;;;;;5.18;2.60;;;23.20;43.40;;;;;;5035886;28;20053;-67
2021/06/14 02:57:10;;;;;;;5.72;2.40;;;23.20;43.40;;;;;;5035771;28;20014;-67
2021/06/14 02:59:37;;;;;;;5.18;2.28;;;23.20;43.50;;;;;;5035593;28;20084;-66
2021/06/14 03:02:04;;;;;;;6.30;2.67;;;23.20;43.50;;;;;;5035684;28;20109;-66
2021/06/14 03:04:32;;;;;;;6.00;2.38;;;23.20;43.60;;;;;;5035451;28;20117;-67
2021/06/14 03:06:57;;;;;;;5.45;2.70;;;23.20;43.50;;;;;;5035198;28;20057;-67
2021/06/14 03:09:24;;;;;;;6.80;3.05;;;23.10;43.50;;;;;;5035135;28;20076;-67
2021/06/14 03:11:51;;;;;;;7.07;2.95;;;23.10;43.60;;;;;;5033799;28;20025;-67
2021/06/14 03:14:17;;;;;;;5.25;2.40;;;23.10;43.60;;;;;;5035252;28;20092;-66
2021/06/14 03:16:44;;;;;;;6.07;2.15;;;23.10;43.70;;;;;;5035032;28;20100;-66
2021/06/14 03:19:11;;;;;;;5.25;2.40;;;23.10;43.70;;;;;;5034654;28;20124;-67
2021/06/14 03:21:37;;;;;;;5.82;2.25;;;23.10;43.60;;;;;;5034704;28;20431;-67
2021/06/14 03:24:04;;;;;;;6.85;2.80;;;23.10;43.60;;;;;;5034643;28;20486;-66
2021/06/14 03:26:37;;;;;;;5.15;2.20;;;23.10;43.70;;;;;;5034591;28;20108;-67
2021/06/14 03:29:03;;;;;;;6.50;2.65;;;23.00;43.70;;;;;;5034598;28;20030;-67
2021/06/14 03:31:30;;;;;;;6.50;2.75;;;23.00;43.70;;;;;;5034433;28;20488;-67
2021/06/14 03:33:56;;;;;;;5.85;2.83;;;23.00;43.70;;;;;;5033685;28;20021;-67
2021/06/14 03:36:26;;;;;;;6.60;2.28;;;23.00;43.70;;;;;;5034582;28;20108;-67
2021/06/14 03:38:52;;;;;;;7.78;3.00;;;23.00;43.70;;;;;;5034271;28;20029;-67
2021/06/14 03:41:19;;;;;;;5.05;2.25;;;23.00;43.70;;;;;;5034426;28;20028;-67
2021/06/14 03:43:44;;;;;;;7.35;2.67;;;23.00;43.70;;;;;;5033958;28;20501;-67
2021/06/14 03:46:11;;;;;;;6.53;2.40;;;23.00;43.70;;;;;;5034086;28;20111;-67
2021/06/14 03:48:37;;;;;;;7.88;3.38;;;23.00;43.80;;;;;;5033988;28;20057;-67
2021/06/14 03:51:03;;;;;;;7.15;2.65;;;22.90;43.70;;;;;;5033991;28;20183;-67
2021/06/14 03:53:32;;;;;;;6.43;2.55;;;23.00;43.70;;;;;;5033911;28;20033;-67
2021/06/14 03:56:07;;;;;;;6.22;2.92;;;23.00;43.80;;;;;;5034042;28;20021;-66
2021/06/14 03:58:33;;;;;;;5.50;2.60;;;22.90;43.80;;;;;;5033846;28;20473;-67
2021/06/14 04:01:00;;;;;;;6.20;2.83;;;22.90;43.80;;;;;;5032614;28;20041;-67
2021/06/14 04:03:29;;;;;;;7.43;2.53;;;22.90;43.80;;;;;;5033811;28;20474;-67
2021/06/14 04:05:56;;;;;;;5.38;2.10;;;22.90;43.80;;;;;;5033590;28;20374;-67
2021/06/14 04:08:21;;;;;;;6.75;2.60;;;22.90;43.80;;;;;;5033590;28;20473;-67
2021/06/14 04:10:47;;;;;;;6.50;2.88;;;22.90;43.80;;;;;;5033545;28;20026;-67
2021/06/14 04:13:13;;;;;;;5.95;2.53;;;22.90;43.80;;;;;;5033653;28;20030;-67
2021/06/14 04:15:38;;;;;;;6.15;3.03;;;22.90;43.80;;;;;;5033565;28;20038;-67
2021/06/14 04:18:04;;;;;;;6.43;2.45;;;22.90;43.70;;;;;;5033517;28;20034;-67
2021/06/14 04:20:30;;;;;;;7.07;2.70;;;22.90;43.80;;;;;;5033368;28;20025;-66
2021/06/14 04:22:56;;;;;;;4.88;2.38;;;22.80;43.70;;;;;;5033661;28;20116;-66
2021/06/14 04:25:21;;;;;;;6.55;2.70;;;22.90;43.70;;;;;;5033360;28;20013;-67
2021/06/14 04:27:47;;;;;;;5.88;2.50;;;22.90;43.70;;;;;;5033275;28;20070;-67
2021/06/14 04:30:16;;;;;;;6.43;2.40;;;22.80;43.70;;;;;;5033513;28;20033;-67
2021/06/14 04:32:42;;;;;;;5.97;2.50;;;22.80;43.70;;;;;;5031926;28;20026;-67
2021/06/14 04:35:08;;;;;;;7.10;2.78;;;22.80;43.70;;;;;;5033127;28;20040;-67
2021/06/14 04:37:34;;;;;;;5.97;2.67;;;22.80;43.70;;;;;;5033307;28;20029;-67
2021/06/14 04:40:00;;;;;;;4.75;2.42;;;22.80;43.70;;;;;;5033186;28;20033;-67
2021/06/14 04:42:27;;;;;;;6.22;2.70;;;22.80;43.80;;;;;;5031858;28;20473;-67
2021/06/14 04:44:53;;;;;;;6.55;2.92;;;22.80;43.80;;;;;;5032893;28;20053;-67
2021/06/14 04:47:19;;;;;;;7.25;2.58;;;22.80;43.70;;;;;;5033022;28;20021;-67
2021/06/14 04:49:45;;;;;;;5.80;2.85;;;22.80;43.70;;;;;;5032917;28;20044;-67
2021/06/14 04:52:10;;;;;;;6.68;2.50;;;22.80;43.70;;;;;;5032909;28;20108;-66
2021/06/14 04:54:36;;;;;;;5.80;2.47;;;22.80;43.60;;;;;;5033120;28;20040;-67
2021/06/14 04:57:02;;;;;;;5.50;2.50;;;22.80;43.60;;;;;;5032938;28;20022;-67
2021/06/14 04:59:27;;;;;;;6.85;2.63;;;22.80;43.70;;;;;;5032880;28;20105;-67
2021/06/14 05:01:53;;;;;;;6.57;2.20;;;22.80;43.60;;;;;;5032957;28;20099;-67
2021/06/14 05:04:18;;;;;;;6.55;2.25;;;22.80;43.70;;;;;;5032973;28;20048;-67
2021/06/14 05:06:44;;;;;;;6.28;2.75;;;22.80;43.70;;;;;;5033054;28;20029;-67
2021/06/14 05:09:09;;;;;;;5.65;2.45;;;22.70;43.60;;;;;;5032740;28;20041;-67
2021/06/14 05:11:35;;;;;;;5.60;2.35;;;22.80;43.60;;;;;;5032942;28;20021;-67
2021/06/14 05:14:00;;;;;;;5.95;2.60;;;22.70;43.60;;;;;;5033013;28;20014;-67
2021/06/14 05:16:26;;;;;;;4.47;2.20;;;22.80;43.60;;;;;;5032768;28;20148;-67
2021/06/14 05:18:51;;;;;;;4.30;2.28;;;22.80;43.60;;;;;;5032687;28;20385;-66
2021/06/14 05:21:17;;;;;;;7.55;2.42;;;22.80;43.60;;;;;;5032739;28;20026;-67
2021/06/14 05:23:43;;;;;;;5.57;2.45;;;22.80;43.60;;;;;;5032798;28;20095;-67
2021/06/14 05:26:08;;;;;;;6.63;1.98;;;22.80;43.60;;;;;;5032913;28;20101;-67
2021/06/14 05:28:34;;;;;;;5.28;2.13;;;22.80;43.50;;;;;;5032838;28;20535;-68
2021/06/14 05:30:59;;;;;;;5.03;2.20;;;22.80;43.50;;;;;;5032913;28;20057;-67
2021/06/14 05:33:25;;;;;;;7.22;2.70;;;22.80;43.50;;;;;;5040016;28;20025;-68
2021/06/14 05:35:51;;;;;;;5.53;2.33;;;22.80;43.50;;;;;;5040120;28;20076;-66
2021/06/14 05:38:16;;;;;;;6.13;2.60;;;22.80;43.60;;;;;;5033377;28;20489;-66
2021/06/14 05:40:42;;;;;;;5.13;2.53;;;22.80;43.60;;;;;;5032528;28;20037;-67
2021/06/14 05:43:08;;;;;;;6.13;2.40;;;22.80;43.60;;;;;;5032344;28;20105;-67
2021/06/14 05:45:33;;;;;;;5.82;2.33;;;22.80;43.60;;;;;;5032663;28;20025;-67
2021/06/14 05:47:59;;;;;;;5.40;2.20;;;22.80;43.60;;;;;;5032472;28;20509;-67
2021/06/14 05:50:24;;;;;;;5.60;2.42;;;22.80;43.60;;;;;;5032441;28;20034;-66
2021/06/14 05:52:50;;;;;;;7.25;2.60;;;22.90;43.60;;;;;;5032535;28;20389;-67
2021/06/14 05:55:15;;;;;;;5.43;2.30;;;22.80;43.60;;;;;;5032383;28;20030;-67
2021/06/14 05:57:41;;;;;;;6.05;2.63;;;22.90;43.50;;;;;;5034806;28;20057;-67
2021/06/14 06:00:09;;;;;;;5.65;2.40;;;22.90;43.50;;;;;;5036117;28;20060;-67
2021/06/14 06:02:34;;;;;;;7.15;2.40;;;22.90;43.30;;;;;;5036079;28;20043;-67
2021/06/14 06:05:00;;;;;;;7.15;2.70;;;23.00;43.50;;;;;;5036317;28;20120;-67
2021/06/14 06:07:25;;;;;;;5.80;1.85;;;22.90;43.40;;;;;;5036115;28;20112;-67
2021/06/14 06:09:52;;;;;;;4.85;2.22;;;22.90;43.50;;;;;;5036278;28;20033;-67
2021/06/14 06:12:18;;;;;;;4.82;2.33;;;23.00;43.40;;;;;;5036719;28;20021;-67
2021/06/14 06:14:44;;;;;;;5.28;2.25;;;22.90;43.50;;;;;;5036378;28;20104;-67
2021/06/14 06:17:09;;;;;;;6.65;2.17;;;23.00;43.50;;;;;;5035677;28;20156;-67
2021/06/14 06:19:35;;;;;;;5.38;2.38;;;23.00;43.50;;;;;;5035871;28;20025;-66
2021/06/14 06:22:02;;;;;;;5.78;2.42;;;23.00;43.40;;;;;;5035709;28;20469;-67
2021/06/14 06:24:27;;;;;;;6.15;2.33;;;23.00;43.40;;;;;;5035802;28;20039;-67
2021/06/14 06:26:53;;;;;;;5.30;2.40;;;23.00;43.40;;;;;;5035528;28;20021;-67
2021/06/14 06:29:18;;;;;;;5.13;2.42;;;23.00;43.30;;;;;;5034184;28;20072;-67
2021/06/14 06:31:44;;;;;;;4.85;2.17;;;23.10;43.30;;;;;;5035322;28;20096;-67
2021/06/14 06:34:10;;;;;;;4.40;2.10;;;23.00;43.30;;;;;;5035538;28;20029;-67
2021/06/14 06:36:36;;;;;;;5.85;2.20;;;23.10;43.30;;;;;;5042070;28;20079;-67
2021/06/14 06:39:02;;;;;;;5.45;2.22;;;23.10;43.30;;;;;;5035458;28;20461;-67
2021/06/14 06:41:27;;;;;;;6.03;2.42;;;23.10;43.30;;;;;;5035330;28;20056;-67
2021/06/14 06:43:53;;;;;;;5.45;2.60;;;23.20;43.30;;;;;;5034655;28;20184;-67
2021/06/14 06:46:18;;;;;;;4.53;2.28;;;23.10;43.30;;;;;;5036362;28;20451;-67
2021/06/14 06:48:44;;;;;;;6.57;2.65;;;23.10;43.20;;;;;;5036123;28;20052;-67
2021/06/14 06:51:10;;;;;;;5.40;2.40;;;23.20;43.20;;;;;;5035990;28;20034;-66
2021/06/14 06:53:36;;;;;;;5.60;2.22;;;23.20;43.20;;;;;;5041230;28;20021;-67
2021/06/14 06:56:03;;;;;;;6.57;2.50;;;23.20;43.20;;;;;;5037197;28;20037;-67
2021/06/14 06:58:28;;;;;;;4.95;2.25;;;23.20;43.20;;;;;;5043372;28;20017;-69
2021/06/14 07:00:55;;;;;;;7.93;2.38;;;23.20;43.20;;;;;;5041852;28;20029;-67
2021/06/14 07:03:20;;;;;;;5.57;2.40;;;23.20;43.20;;;;;;5034700;28;20021;-68
2021/06/14 07:05:46;;;;;;;4.32;2.20;;;23.20;43.10;;;;;;5033615;28;20040;-67
2021/06/14 07:08:12;;;;;;;7.93;2.17;;;23.20;43.10;;;;;;5032056;28;20076;-67
2021/06/14 07:10:39;;;;;;;6.10;2.70;;;23.20;43.10;;;;;;5033799;28;20053;-66
2021/06/14 07:13:05;;;;;;;5.25;2.00;;;23.30;43.10;;;;;;5032679;28;20466;-66
2021/06/14 07:15:32;;;;;;;6.65;2.47;;;23.20;43.20;;;;;;5033637;28;20116;-68
2021/06/14 07:17:58;;;;;;;5.30;2.22;;;23.20;43.10;;;;;;5033424;28;20057;-67
2021/06/14 07:20:23;;;;;;;6.80;2.53;;;23.30;43.10;;;;;;5033872;28;20045;-67
2021/06/14 07:22:49;;;;;;;6.13;2.15;;;23.30;43.10;;;;;;5032316;28;20076;-67
2021/06/14 07:25:16;;;;;;;6.18;2.13;;;23.30;43.10;;;;;;5033790;28;20021;-67
2021/06/14 07:27:42;;;;;;;7.82;2.38;;;23.40;43.20;;;;;;5033641;28;20029;-67
2021/06/14 07:30:11;;;;;;;6.13;2.47;;;23.30;43.20;;;;;;5032400;28;20034;-67
2021/06/14 07:32:37;;;;;;;4.40;2.15;;;23.40;43.10;;;;;;5033474;28;20017;-68
2021/06/14 07:35:03;;;;;;;5.53;2.20;;;23.40;43.20;;;;;;5033304;28;20037;-67
2021/06/14 07:37:28;;;;;;;7.97;2.50;;;23.40;43.20;;;;;;5033298;28;20083;-66
2021/06/14 07:39:54;;;;;;;6.82;2.40;;;23.40;43.20;;;;;;5031462;28;20021;-66
2021/06/14 07:42:20;;;;;;;6.78;2.22;;;23.40;43.20;;;;;;5033182;28;20531;-67
2021/06/14 07:44:45;;;;;;;5.32;2.45;;;23.40;43.20;;;;;;5033231;28;20079;-67
2021/06/14 07:47:12;;;;;;;6.03;2.65;;;23.40;43.20;;;;;;5032105;28;20052;-67
2021/06/14 07:49:39;;;;;;;5.60;2.47;;;23.40;43.20;;;;;;5032284;28;20148;-67
2021/06/14 07:52:05;;;;;;;6.72;2.38;;;23.40;43.20;;;;;;5033337;28;20024;-67
2021/06/14 07:54:31;;;;;;;4.38;1.80;;;23.40;43.20;;;;;;5048348;28;20159;-68
2021/06/14 07:56:56;;;;;;;6.63;2.60;;;23.50;43.20;;;;;;5051027;28;20112;-68
2021/06/14 07:59:22;;;;;;;7.10;2.38;;;23.50;43.20;;;;;;5047539;28;20028;-68
2021/06/14 08:01:48;;;;;;;5.90;2.22;;;23.50;43.20;;;;;;5051919;28;20017;-68
2021/06/14 08:04:13;;;;;;;4.68;2.10;;;23.50;43.20;;;;;;5037435;28;20025;-67
2021/06/14 08:06:39;;;;;;;5.82;2.42;;;23.50;43.10;;;;;;5032896;28;20028;-69
2021/06/14 08:09:08;;;;;;;4.80;1.95;;;23.50;43.20;;;;;;5031432;28;20076;-68
2021/06/14 08:11:35;;;;;;;3.25;1.60;;;23.50;43.20;;;;;;5032175;28;20026;-66
2021/06/14 08:14:01;;;;;;;5.55;2.20;;;23.50;43.20;;;;;;5032884;28;20092;-66
2021/06/14 08:16:27;;;;;;;6.32;2.20;;;23.50;43.20;;;;;;5032806;28;20498;-66
2021/06/14 08:21:42;;;;;;;4.82;2.30;;;23.50;43.20;;;;;;5031988;28;20251;-68
2021/06/14 08:26:53;;;;;;;5.80;2.28;;;23.50;43.30;;;;;;5033306;28;20116;-67
2021/06/14 08:29:19;;;;;;;6.07;2.40;;;23.50;43.30;;;;;;5033692;28;20037;-66
2021/06/14 08:31:45;;;;;;;4.18;1.98;;;23.50;43.20;;;;;;5032455;28;20022;-66
2021/06/14 08:34:11;;;;;;;3.90;1.90;;;23.50;43.30;;;;;;5032983;28;20038;-68
2021/06/14 08:36:39;;;;;;;4.43;1.88;;;23.50;43.20;;;;;;5037232;28;20021;-67
2021/06/14 08:39:07;;;;;;;4.68;2.20;;;23.50;43.30;;;;;;5042147;28;20052;-69
2021/06/14 08:41:32;;;;;;;4.88;1.88;;;23.50;43.30;;;;;;5040547;28;20091;-68
2021/06/14 08:43:59;;;;;;;4.60;2.10;;;23.50;43.30;;;;;;5042084;28;20049;-69
2021/06/14 08:46:26;;;;;;;4.85;1.90;;;23.60;43.30;;;;;;5042332;28;20040;-67
2021/06/14 08:48:54;;;;;;;5.57;2.72;;;23.60;43.30;;;;;;5042966;28;20064;-68
2021/06/14 08:51:20;;;;;;;5.95;2.13;;;23.60;43.30;;;;;;5043440;28;20025;-67
2021/06/14 08:53:51;;;;;;;6.47;2.50;;;23.60;43.40;;;;;;5041665;28;20021;-67
2021/06/14 08:56:19;;;;;;;6.55;2.50;;;23.60;43.40;;;;;;5042232;28;20032;-67
2021/06/14 08:58:45;;;;;;;7.22;2.30;;;23.60;43.30;;;;;;5042356;28;20034;-66
2021/06/14 09:01:10;;;;;;;6.25;2.05;;;23.60;43.30;;;;;;5031587;28;20029;-69
2021/06/14 09:03:36;;;;;;;3.58;1.80;;;23.60;43.30;;;;;;5031865;28;20037;-68
2021/06/14 09:06:01;;;;;;;5.43;1.98;;;23.60;43.30;;;;;;5032279;28;20024;-69
2021/06/14 09:08:27;;;;;;;5.90;2.47;;;23.60;43.40;;;;;;5032154;28;20029;-68
2021/06/14 09:10:53;;;;;;;6.68;2.08;;;23.60;43.40;;;;;;5032202;28;20017;-69
2021/06/14 09:13:24;;;;;;;4.35;1.65;;;23.70;43.30;;;;;;5031720;28;20025;-69
2021/06/14 09:16:03;;;;;;;5.45;2.30;;;23.60;43.40;;;;;;5032221;28;20038;-69
2021/06/14 09:18:29;;;;;;;6.55;1.67;;;23.60;43.40;;;;;;5031922;28;20112;-69
2021/06/14 09:20:55;;;;;;;4.85;1.90;;;23.60;43.40;;;;;;5031888;28;20100;-68
2021/06/14 09:23:21;;;;;;;4.45;1.77;;;23.60;43.40;;;;;;5031090;28;20040;-67
2021/06/14 09:25:48;;;;;;;4.70;1.90;;;23.70;43.40;;;;;;5032000;28;20433;-68
2021/06/14 09:28:14;;;;;;;5.53;1.83;;;23.70;43.50;;;;;;5029334;28;20030;-68
2021/06/14 09:30:40;;;;;;;4.28;1.90;;;23.70;43.50;;;;;;5033035;28;20033;-67
2021/06/14 09:33:09;;;;;;;5.35;2.10;;;23.70;43.50;;;;;;5054772;28;20074;-68
2021/06/14 09:35:40;;;;;;;6.20;2.33;;;23.70;43.50;;;;;;5055230;28;20384;-67
2021/06/14 09:38:15;;;;;;;4.35;1.98;;;23.70;43.50;;;;;;5055684;28;20112;-68
2021/06/14 09:40:44;;;;;;;4.65;1.85;;;23.70;43.50;;;;;;5055895;28;20025;-69
2021/06/14 09:43:38;;;;;;;8.00;2.35;;;23.70;43.50;;;;;;5055278;28;20043;-67
2021/06/14 09:46:28;;;;;;;4.28;1.95;;;23.70;43.50;;;;;;5055022;28;20029;-67
2021/06/14 09:48:55;;;;;;;4.05;1.98;;;23.70;43.50;;;;;;5055540;28;20079;-68
2021/06/14 09:51:21;;;;;;;4.53;2.25;;;23.70;43.50;;;;;;5055354;28;20032;-67
2021/06/14 09:53:51;;;;;;;3.90;1.98;;;23.80;43.60;;;;;;5053872;28;20388;-66
2021/06/14 09:56:19;;;;;;;5.13;1.92;;;23.80;43.60;;;;;;5043217;28;20033;-66
2021/06/14 09:58:47;;;;;;;5.32;1.92;;;23.80;43.50;;;;;;5035021;28;20466;-67
2021/06/14 10:01:13;;;;;;;5.85;2.03;;;23.80;43.50;;;;;;5035042;28;20025;-67
2021/06/14 10:03:43;;;;;;;5.85;2.20;;;23.80;43.50;;;;;;5033959;28;20026;-66
2021/06/14 10:06:09;;;;;;;4.55;2.03;;;23.80;43.50;;;;;;5034305;28;20488;-66
2021/06/14 10:08:35;;;;;;;5.05;2.17;;;23.80;43.50;;;;;;5034977;28;20038;-67
2021/06/14 10:11:13;;;;;;;4.90;1.88;;;23.80;43.50;;;;;;5035437;28;20041;-66
2021/06/14 10:13:41;;;;;;;5.75;1.75;;;23.80;43.50;;;;;;5034769;28;20397;-65
2021/06/14 10:16:10;;;;;;;4.70;1.80;;;23.80;43.50;;;;;;5034064;28;20037;-66
2021/06/14 10:18:39;;;;;;;5.10;2.05;;;23.90;43.50;;;;;;5034944;28;20105;-66
2021/06/14 10:21:22;;;;;;;4.30;1.98;;;23.90;43.50;;;;;;5035426;28;20025;-65
2021/06/14 10:23:51;;;;;;;4.05;1.90;;;23.90;43.50;;;;;;5034831;28;20022;-66
2021/06/14 10:26:17;;;;;;;4.95;1.85;;;23.90;43.50;;;;;;5037478;28;20021;-67
2021/06/14 10:28:43;;;;;;;6.93;2.05;;;23.90;43.50;;;;;;5054508;28;20044;-66
2021/06/14 10:31:10;;;;;;;4.03;1.92;;;23.90;43.50;;;;;;5054645;28;20029;-65
2021/06/14 10:33:36;;;;;;;4.55;1.90;;;23.90;43.50;;;;;;5054387;28;20027;-65
2021/06/14 10:36:02;;;;;;;4.38;1.98;;;23.90;43.50;;;;;;5054275;28;20358;-66
2021/06/14 10:38:29;;;;;;;4.88;1.85;;;23.90;43.50;;;;;;5054016;28;20025;-65
2021/06/14 10:40:55;;;;;;;4.45;2.03;;;24.00;43.50;;;;;;5054518;28;20049;-65
2021/06/14 10:43:26;;;;;;;4.35;1.77;;;24.00;43.40;;;;;;5053728;28;20051;-65
2021/06/14 10:45:53;;;;;;;3.83;1.77;;;24.00;43.40;;;;;;5054191;28;20514;-65
2021/06/14 10:48:27;;;;;;;4.30;1.70;;;24.00;43.40;;;;;;5052842;28;20017;-65
2021/06/14 10:50:54;;;;;;;4.25;1.90;;;24.00;43.40;;;;;;5054385;28;20037;-64
2021/06/14 10:53:28;;;;;;;3.10;1.38;;;24.00;43.40;;;;;;5054152;28;20485;-66
2021/06/14 10:55:54;;;;;;;;;;;24.00;43.40;;;;;;5054701;28;20043;-65
2021/06/14 10:58:21;;;;;;;4.57;1.75;;;24.00;43.40;;;;;;5053456;28;19996;-64
2021/06/14 11:01:09;;;;;;;3.65;1.70;;;24.00;43.40;;;;;;5054177;28;20472;-65
2021/06/14 11:03:47;;;;;;;5.95;1.98;;;24.00;43.40;;;;;;5054135;28;20354;-65
2021/06/14 11:06:21;;;;;;;4.32;1.95;;;24.10;43.40;;;;;;5054514;28;20078;-66
2021/06/14 11:09:05;;;;;;;4.00;1.73;;;24.10;43.40;;;;;;5048571;28;20354;-66
2021/06/14 11:11:42;;;;;;;;;;;24.10;43.40;;;;;;5034869;28;20115;-66
2021/06/14 11:14:08;;;;;;;3.15;1.42;;;24.20;43.30;;;;;;5033611;28;19905;-64
2021/06/14 11:16:39;;;;;;;4.18;1.50;;;24.10;43.40;;;;;;5050220;28;20060;-64
2021/06/14 11:19:07;;;;;;;4.55;1.90;;;24.20;43.40;;;;;;5059281;28;20032;-64
2021/06/14 11:21:33;;;;;;;4.65;1.83;;;24.20;43.40;;;;;;5054352;28;20075;-64
2021/06/14 11:24:09;;;;;;;4.40;2.03;;;24.20;43.40;;;;;;5053785;28;20021;-64
2021/06/14 11:26:36;;;;;;;4.30;2.00;;;24.20;43.40;;;;;;5055087;28;20108;-64
2021/06/14 11:29:18;;;;;;;4.07;1.77;;;24.20;43.30;;;;;;5053467;28;20116;-63
2021/06/14 11:32:02;;;;;;;3.65;1.63;;;24.30;43.30;;;;;;5053709;28;20025;-66
2021/06/14 11:34:38;;;;;;;4.18;1.92;;;24.30;43.30;;;;;;5054361;28;20428;-66
2021/06/14 11:37:04;;;;;;;4.68;1.80;;;24.40;43.20;;;;;;5061032;28;20512;-64
2021/06/14 11:39:31;;;;;;;3.40;1.52;;;24.40;43.20;;;;;;5058163;28;20029;-65
2021/06/14 11:42:11;;;;;;;3.65;1.65;;;24.40;43.20;;;;;;5054102;28;20055;-65
2021/06/14 11:44:36;;;;;;;4.03;1.77;;;24.40;43.20;;;;;;5053867;28;20044;-64
2021/06/14 11:47:18;;;;;;;4.22;1.75;;;24.50;43.20;;;;;;5054142;28;20032;-64
2021/06/14 11:49:46;;;;;;;4.05;1.85;;;24.50;43.20;;;;;;5052763;28;20507;-64
2021/06/14 11:52:25;;;;;;;3.90;1.80;;;24.50;43.10;;;;;;5052917;28;20437;-64
2021/06/14 11:54:55;;;;;;;4.13;1.70;;;24.50;43.10;;;;;;5033379;28;20377;-62
2021/06/14 11:57:43;;;;;;;3.40;1.45;;;24.50;43.10;;;;;;5033604;28;20112;-64
2021/06/14 12:00:27;;;;;;;4.38;1.60;;;24.60;43.10;;;;;;5048097;28;20117;-65
2021/06/14 12:02:53;;;;;;;4.03;1.90;;;24.70;43.00;;;;;;5032879;28;20038;-66
2021/06/14 12:05:30;;;;;;;4.13;1.90;;;24.70;43.00;;;;;;5033138;28;20025;-65
2021/06/14 12:07:55;;;;;;;3.42;1.65;;;24.70;43.00;;;;;;5032017;28;20084;-65
2021/06/14 12:10:22;;;;;;;3.70;1.60;;;24.70;43.00;;;;;;5033068;28;20041;-64
2021/06/14 12:13:04;;;;;;;1.90;1.10;;;24.80;42.90;;;;;;5032532;28;20404;-64
2021/06/14 12:15:30;;;;;;;4.50;1.75;;;24.80;42.90;;;;;;5032998;28;20032;-64
2021/06/14 12:17:56;;;;;;;2.88;1.45;;;24.90;42.90;;;;;;5032926;28;20022;-64
2021/06/14 12:20:25;;;;;;;3.38;1.50;;;24.90;42.80;;;;;;5032744;28;20442;-64
2021/06/14 12:22:59;;;;;;;3.97;1.60;;;25.00;42.80;;;;;;5032134;28;20042;-63
2021/06/14 12:25:25;;;;;;;3.28;1.40;;;25.00;42.80;;;;;;5033067;28;20029;-65
2021/06/14 12:28:01;;;;;;;2.92;1.50;;;25.10;42.70;;;;;;5033030;28;20475;-64
2021/06/14 12:30:27;;;;;;;4.45;1.60;;;25.10;42.70;;;;;;5032576;28;20095;-64
2021/06/14 12:32:54;;;;;;;3.58;1.90;;;25.10;42.70;;;;;;5031865;28;20038;-65
2021/06/14 12:35:20;;;;;;;3.90;1.98;;;25.20;42.60;;;;;;5032587;28;20026;-64
2021/06/14 12:37:46;;;;;;;5.65;1.75;;;25.20;42.50;;;;;;5033048;28;20044;-64
2021/06/14 12:40:15;;;;;;;3.47;1.40;;;25.30;42.50;;;;;;5032610;28;20489;-64
2021/06/14 12:42:41;;;;;;;5.50;1.42;;;25.40;42.50;;;;;;5031694;28;20615;-64
2021/06/14 12:45:12;;;;;;;4.45;1.85;;;25.40;42.40;;;;;;5032299;28;20054;-63
2021/06/14 12:47:43;;;;;;;3.50;1.60;;;25.50;42.40;;;;;;5038838;28;20030;-65
2021/06/14 12:50:22;;;;;;;3.58;1.55;;;25.50;42.30;;;;;;5033245;28;20120;-64
2021/06/14 12:52:49;;;;;;;1.80;1.10;;;25.50;42.30;;;;;;5031626;28;20390;-64
2021/06/14 12:55:23;;;;;;;3.58;1.52;;;25.60;42.20;;;;;;5032206;28;20025;-64
2021/06/14 12:57:49;;;;;;;;;;;25.70;42.10;;;;;;5032631;28;20021;-63